sensor_id;sensor_type;location;lat;lon;timestamp;pressure;altitude;pressure_sealevel;temperature;humidity
74336;BME280;62755;-33.398;-70.572;2023-03-14T00:01:00;93126.59;;;26.23;41.87
74336;BME280;62755;-33.398;-70.572;2023-03-14T00:03:56;93126.69;;;26.12;41.92
74336;BME280;62755;-33.398;-70.572;2023-03-14T00:06:47;93129.19;;;26.09;42.12
74336;BME280;62755;-33.398;-70.572;2023-03-14T00:09:37;93129.75;;;25.91;42.83
74336;BME280;62755;-33.398;-70.572;2023-03-14T00:12:27;93123.47;;;26.02;42.35
74336;BME280;62755;-33.398;-70.572;2023-03-14T00:15:16;93128.22;;;26.01;42.17
74336;BME280;62755;-33.398;-70.572;2023-03-14T00:18:05;93127.72;;;25.97;42.63
74336;BME280;62755;-33.398;-70.572;2023-03-14T00:20:58;93134.19;;;26.05;42.65
74336;BME280;62755;-33.398;-70.572;2023-03-14T00:23:49;93130.19;;;26.06;42.57
74336;BME280;62755;-33.398;-70.572;2023-03-14T00:26:39;93131.56;;;26.30;41.67
74336;BME280;62755;-33.398;-70.572;2023-03-14T00:29:28;93132.19;;;26.47;41.70
74336;BME280;62755;-33.398;-70.572;2023-03-14T00:32:17;93142.28;;;26.33;42.08
74336;BME280;62755;-33.398;-70.572;2023-03-14T00:35:07;93145.25;;;26.35;42.10
74336;BME280;62755;-33.398;-70.572;2023-03-14T00:37:57;93139.91;;;26.48;41.92
74336;BME280;62755;-33.398;-70.572;2023-03-14T00:40:48;93139.47;;;26.39;42.36
74336;BME280;62755;-33.398;-70.572;2023-03-14T00:43:37;93137.00;;;26.35;42.87
74336;BME280;62755;-33.398;-70.572;2023-03-14T00:46:27;93132.09;;;26.23;42.47
74336;BME280;62755;-33.398;-70.572;2023-03-14T00:49:16;93134.59;;;26.21;43.30
74336;BME280;62755;-33.398;-70.572;2023-03-14T00:52:06;93130.06;;;26.29;42.62
74336;BME280;62755;-33.398;-70.572;2023-03-14T00:54:55;93127.31;;;26.29;42.97
74336;BME280;62755;-33.398;-70.572;2023-03-14T00:57:46;93122.66;;;26.13;43.10
74336;BME280;62755;-33.398;-70.572;2023-03-14T01:00:36;93117.69;;;26.05;43.92
74336;BME280;62755;-33.398;-70.572;2023-03-14T01:03:25;93124.09;;;26.25;43.44
74336;BME280;62755;-33.398;-70.572;2023-03-14T01:06:16;93116.63;;;26.20;43.42
74336;BME280;62755;-33.398;-70.572;2023-03-14T01:09:06;93118.44;;;26.00;43.59
74336;BME280;62755;-33.398;-70.572;2023-03-14T01:11:55;93117.69;;;26.11;43.78
74336;BME280;62755;-33.398;-70.572;2023-03-14T01:14:46;93115.34;;;26.21;43.76
74336;BME280;62755;-33.398;-70.572;2023-03-14T01:17:36;93123.03;;;25.87;44.01
74336;BME280;62755;-33.398;-70.572;2023-03-14T01:20:26;93117.44;;;25.57;44.84
74336;BME280;62755;-33.398;-70.572;2023-03-14T01:23:15;93124.97;;;25.51;44.75
74336;BME280;62755;-33.398;-70.572;2023-03-14T01:26:05;93128.38;;;25.68;45.02
74336;BME280;62755;-33.398;-70.572;2023-03-14T01:28:57;93125.53;;;25.85;44.22
74336;BME280;62755;-33.398;-70.572;2023-03-14T01:31:48;93116.50;;;25.95;44.21
74336;BME280;62755;-33.398;-70.572;2023-03-14T01:34:38;93127.81;;;25.86;44.22
74336;BME280;62755;-33.398;-70.572;2023-03-14T01:37:27;93124.38;;;25.69;44.45
74336;BME280;62755;-33.398;-70.572;2023-03-14T01:40:16;93129.38;;;25.65;44.35
74336;BME280;62755;-33.398;-70.572;2023-03-14T01:43:14;93127.25;;;25.93;44.16
74336;BME280;62755;-33.398;-70.572;2023-03-14T01:46:32;93123.31;;;25.83;44.79
74336;BME280;62755;-33.398;-70.572;2023-03-14T01:49:27;93127.91;;;25.64;45.37
74336;BME280;62755;-33.398;-70.572;2023-03-14T01:52:22;93130.63;;;25.70;45.05
74336;BME280;62755;-33.398;-70.572;2023-03-14T01:55:15;93131.41;;;25.59;46.02
74336;BME280;62755;-33.398;-70.572;2023-03-14T01:58:06;93133.91;;;25.57;45.95
74336;BME280;62755;-33.398;-70.572;2023-03-14T02:00:58;93134.22;;;25.43;47.10
74336;BME280;62755;-33.398;-70.572;2023-03-14T02:03:51;93128.31;;;25.11;47.55
74336;BME280;62755;-33.398;-70.572;2023-03-14T02:06:50;93133.34;;;24.74;48.61
74336;BME280;62755;-33.398;-70.572;2023-03-14T02:09:40;93125.09;;;24.57;49.17
74336;BME280;62755;-33.398;-70.572;2023-03-14T02:12:30;93123.84;;;24.64;49.06
74336;BME280;62755;-33.398;-70.572;2023-03-14T02:15:20;93116.13;;;24.90;48.57
74336;BME280;62755;-33.398;-70.572;2023-03-14T02:18:10;93108.59;;;25.07;48.00
74336;BME280;62755;-33.398;-70.572;2023-03-14T02:21:04;93114.13;;;24.96;48.25
74336;BME280;62755;-33.398;-70.572;2023-03-14T02:24:02;93105.66;;;24.72;49.02
74336;BME280;62755;-33.398;-70.572;2023-03-14T02:27:14;93108.66;;;24.52;49.65
74336;BME280;62755;-33.398;-70.572;2023-03-14T02:30:06;93098.69;;;24.37;49.87
74336;BME280;62755;-33.398;-70.572;2023-03-14T02:32:58;93109.16;;;24.78;48.83
74336;BME280;62755;-33.398;-70.572;2023-03-14T02:35:51;93109.09;;;23.89;51.33
74336;BME280;62755;-33.398;-70.572;2023-03-14T02:38:47;93111.91;;;24.28;50.65
74336;BME280;62755;-33.398;-70.572;2023-03-14T02:41:39;93104.66;;;24.75;49.48
74336;BME280;62755;-33.398;-70.572;2023-03-14T02:44:31;93108.66;;;24.63;49.54
74336;BME280;62755;-33.398;-70.572;2023-03-14T02:47:24;93100.69;;;24.09;50.81
74336;BME280;62755;-33.398;-70.572;2023-03-14T02:50:17;93112.16;;;24.58;49.50
74336;BME280;62755;-33.398;-70.572;2023-03-14T02:53:07;93114.13;;;24.29;50.37
74336;BME280;62755;-33.398;-70.572;2023-03-14T02:55:57;93110.91;;;24.31;50.20
74336;BME280;62755;-33.398;-70.572;2023-03-14T02:58:46;93109.66;;;24.37;50.03
74336;BME280;62755;-33.398;-70.572;2023-03-14T03:01:37;93107.16;;;24.28;49.70
74336;BME280;62755;-33.398;-70.572;2023-03-14T03:04:27;93107.16;;;24.62;48.55
74336;BME280;62755;-33.398;-70.572;2023-03-14T03:07:16;93101.69;;;24.51;49.73
74336;BME280;62755;-33.398;-70.572;2023-03-14T03:10:06;93092.22;;;24.63;49.25
74336;BME280;62755;-33.398;-70.572;2023-03-14T03:12:56;93091.69;;;24.70;49.22
74336;BME280;62755;-33.398;-70.572;2023-03-14T03:15:45;93092.22;;;24.74;49.32
74336;BME280;62755;-33.398;-70.572;2023-03-14T03:18:36;93089.72;;;24.20;50.61
74336;BME280;62755;-33.398;-70.572;2023-03-14T03:21:26;93090.22;;;24.24;50.89
74336;BME280;62755;-33.398;-70.572;2023-03-14T03:24:15;93083.94;;;23.91;51.21
74336;BME280;62755;-33.398;-70.572;2023-03-14T03:27:04;93097.19;;;24.03;50.68
74336;BME280;62755;-33.398;-70.572;2023-03-14T03:29:54;93097.94;;;24.31;50.65
74336;BME280;62755;-33.398;-70.572;2023-03-14T03:32:43;93088.91;;;23.76;51.43
74336;BME280;62755;-33.398;-70.572;2023-03-14T03:35:34;93102.09;;;23.88;51.18
74336;BME280;62755;-33.398;-70.572;2023-03-14T03:38:24;93080.69;;;23.81;51.25
74336;BME280;62755;-33.398;-70.572;2023-03-14T03:41:13;93103.03;;;23.63;51.27
74336;BME280;62755;-33.398;-70.572;2023-03-14T03:44:03;93107.53;;;23.66;51.29
74336;BME280;62755;-33.398;-70.572;2023-03-14T03:46:52;93112.44;;;23.40;51.69
74336;BME280;62755;-33.398;-70.572;2023-03-14T03:49:42;93109.50;;;23.60;51.59
74336;BME280;62755;-33.398;-70.572;2023-03-14T03:52:33;93110.75;;;23.65;51.46
74336;BME280;62755;-33.398;-70.572;2023-03-14T03:55:22;93115.25;;;23.68;51.01
74336;BME280;62755;-33.398;-70.572;2023-03-14T03:58:12;93108.84;;;23.87;50.44
74336;BME280;62755;-33.398;-70.572;2023-03-14T04:01:01;93122.47;;;23.65;51.13
74336;BME280;62755;-33.398;-70.572;2023-03-14T04:03:51;93118.44;;;23.55;51.35
74336;BME280;62755;-33.398;-70.572;2023-03-14T04:06:40;93122.44;;;23.54;51.57
74336;BME280;62755;-33.398;-70.572;2023-03-14T04:09:34;93112.47;;;23.51;51.29
74336;BME280;62755;-33.398;-70.572;2023-03-14T04:12:24;93111.25;;;23.63;51.09
74336;BME280;62755;-33.398;-70.572;2023-03-14T04:15:13;93113.75;;;23.67;51.02
74336;BME280;62755;-33.398;-70.572;2023-03-14T04:18:02;93109.94;;;23.42;51.85
74336;BME280;62755;-33.398;-70.572;2023-03-14T04:20:52;93096.50;;;23.33;51.73
74336;BME280;62755;-33.398;-70.572;2023-03-14T04:23:42;93097.00;;;23.37;51.64
74336;BME280;62755;-33.398;-70.572;2023-03-14T04:26:33;93095.06;;;23.54;51.30
74336;BME280;62755;-33.398;-70.572;2023-03-14T04:29:23;93096.34;;;23.81;50.38
74336;BME280;62755;-33.398;-70.572;2023-03-14T04:32:12;93092.59;;;23.67;50.97
74336;BME280;62755;-33.398;-70.572;2023-03-14T04:35:01;93094.75;;;23.41;51.34
74336;BME280;62755;-33.398;-70.572;2023-03-14T04:37:51;93089.75;;;23.34;51.46
74336;BME280;62755;-33.398;-70.572;2023-03-14T04:40:41;93088.59;;;23.57;51.11
74336;BME280;62755;-33.398;-70.572;2023-03-14T04:43:32;93052.31;;;23.09;51.66
74336;BME280;62755;-33.398;-70.572;2023-03-14T04:46:22;93077.84;;;23.42;51.44
74336;BME280;62755;-33.398;-70.572;2023-03-14T04:49:11;93056.19;;;23.39;51.41
74336;BME280;62755;-33.398;-70.572;2023-03-14T04:52:00;93076.94;;;23.68;50.81
74336;BME280;62755;-33.398;-70.572;2023-03-14T04:54:50;93078.66;;;23.65;50.81
74336;BME280;62755;-33.398;-70.572;2023-03-14T04:57:39;93074.94;;;23.68;50.91
74336;BME280;62755;-33.398;-70.572;2023-03-14T05:00:30;93064.81;;;23.21;52.07
74336;BME280;62755;-33.398;-70.572;2023-03-14T05:03:20;93061.59;;;23.28;51.93
74336;BME280;62755;-33.398;-70.572;2023-03-14T05:06:09;93060.69;;;23.42;51.76
74336;BME280;62755;-33.398;-70.572;2023-03-14T05:08:59;93052.97;;;23.46;51.63
74336;BME280;62755;-33.398;-70.572;2023-03-14T05:11:49;93056.50;;;23.58;51.48
74336;BME280;62755;-33.398;-70.572;2023-03-14T05:14:38;93046.75;;;23.51;51.51
74336;BME280;62755;-33.398;-70.572;2023-03-14T05:17:29;93043.03;;;23.48;51.62
74336;BME280;62755;-33.398;-70.572;2023-03-14T05:20:19;93045.28;;;23.61;51.14
74336;BME280;62755;-33.398;-70.572;2023-03-14T05:23:08;93029.81;;;23.47;51.35
74336;BME280;62755;-33.398;-70.572;2023-03-14T05:25:58;93029.34;;;23.54;51.54
74336;BME280;62755;-33.398;-70.572;2023-03-14T05:28:47;93027.09;;;23.41;51.72
74336;BME280;62755;-33.398;-70.572;2023-03-14T05:31:37;93028.47;;;23.09;52.34
74336;BME280;62755;-33.398;-70.572;2023-03-14T05:34:28;93033.19;;;23.09;52.49
74336;BME280;62755;-33.398;-70.572;2023-03-14T05:37:19;93022.16;;;22.87;53.23
74336;BME280;62755;-33.398;-70.572;2023-03-14T05:40:09;93025.63;;;22.82;53.07
74336;BME280;62755;-33.398;-70.572;2023-03-14T05:42:58;93017.84;;;22.75;53.36
74336;BME280;62755;-33.398;-70.572;2023-03-14T05:45:48;93023.06;;;22.73;53.36
74336;BME280;62755;-33.398;-70.572;2023-03-14T05:48:37;93017.44;;;22.93;53.17
74336;BME280;62755;-33.398;-70.572;2023-03-14T05:51:28;93018.69;;;22.92;53.03
74336;BME280;62755;-33.398;-70.572;2023-03-14T05:54:17;93021.09;;;22.79;53.46
74336;BME280;62755;-33.398;-70.572;2023-03-14T05:57:08;93018.63;;;22.81;53.31
74336;BME280;62755;-33.398;-70.572;2023-03-14T05:59:57;93008.69;;;22.78;53.34
74336;BME280;62755;-33.398;-70.572;2023-03-14T06:02:47;93003.78;;;22.93;52.94
74336;BME280;62755;-33.398;-70.572;2023-03-14T06:05:36;93003.00;;;22.92;52.47
74336;BME280;62755;-33.398;-70.572;2023-03-14T06:08:27;92999.31;;;22.95;52.71
74336;BME280;62755;-33.398;-70.572;2023-03-14T06:11:16;93005.81;;;23.09;52.64
74336;BME280;62755;-33.398;-70.572;2023-03-14T06:14:06;93015.81;;;23.17;52.18
74336;BME280;62755;-33.398;-70.572;2023-03-14T06:16:55;92993.34;;;22.97;52.70
74336;BME280;62755;-33.398;-70.572;2023-03-14T06:19:45;93024.03;;;23.23;52.34
74336;BME280;62755;-33.398;-70.572;2023-03-14T06:22:35;93023.13;;;23.42;51.81
74336;BME280;62755;-33.398;-70.572;2023-03-14T06:25:27;93023.50;;;23.13;52.38
74336;BME280;62755;-33.398;-70.572;2023-03-14T06:28:16;93031.59;;;22.86;52.98
74336;BME280;62755;-33.398;-70.572;2023-03-14T06:31:06;93024.69;;;22.96;52.59
74336;BME280;62755;-33.398;-70.572;2023-03-14T06:33:56;93023.19;;;22.95;52.75
74336;BME280;62755;-33.398;-70.572;2023-03-14T06:36:45;93020.72;;;23.08;52.77
74336;BME280;62755;-33.398;-70.572;2023-03-14T06:39:34;93025.00;;;23.20;52.37
74336;BME280;62755;-33.398;-70.572;2023-03-14T06:42:27;93017.75;;;23.06;52.63
74336;BME280;62755;-33.398;-70.572;2023-03-14T06:45:16;93017.75;;;23.06;52.49
74336;BME280;62755;-33.398;-70.572;2023-03-14T06:48:06;93024.63;;;22.85;53.00
74336;BME280;62755;-33.398;-70.572;2023-03-14T06:50:55;93029.06;;;22.77;53.06
74336;BME280;62755;-33.398;-70.572;2023-03-14T06:53:45;93033.03;;;22.76;53.04
74336;BME280;62755;-33.398;-70.572;2023-03-14T06:56:34;93029.13;;;22.88;52.90
74336;BME280;62755;-33.398;-70.572;2023-03-14T06:59:25;93024.63;;;22.42;54.00
74336;BME280;62755;-33.398;-70.572;2023-03-14T07:02:15;93025.03;;;22.66;53.49
74336;BME280;62755;-33.398;-70.572;2023-03-14T07:05:05;93022.69;;;22.17;54.69
74336;BME280;62755;-33.398;-70.572;2023-03-14T07:07:54;93018.91;;;22.40;54.48
74336;BME280;62755;-33.398;-70.572;2023-03-14T07:10:43;93013.22;;;22.49;53.96
74336;BME280;62755;-33.398;-70.572;2023-03-14T07:13:33;93008.75;;;22.46;53.97
74336;BME280;62755;-33.398;-70.572;2023-03-14T07:16:24;93009.63;;;22.63;53.55
74336;BME280;62755;-33.398;-70.572;2023-03-14T07:19:15;93002.94;;;22.70;53.48
74336;BME280;62755;-33.398;-70.572;2023-03-14T07:22:05;93000.88;;;22.59;53.75
74336;BME280;62755;-33.398;-70.572;2023-03-14T07:24:54;92998.22;;;22.28;54.44
74336;BME280;62755;-33.398;-70.572;2023-03-14T07:27:44;92996.97;;;22.29;54.33
74336;BME280;62755;-33.398;-70.572;2023-03-14T07:30:34;92995.00;;;22.35;54.16
74336;BME280;62755;-33.398;-70.572;2023-03-14T07:33:25;92991.31;;;22.38;53.86
74336;BME280;62755;-33.398;-70.572;2023-03-14T07:36:15;92985.06;;;22.32;53.96
74336;BME280;62755;-33.398;-70.572;2023-03-14T07:39:04;92972.06;;;22.58;53.31
74336;BME280;62755;-33.398;-70.572;2023-03-14T07:41:54;92985.97;;;22.60;53.56
74336;BME280;62755;-33.398;-70.572;2023-03-14T07:44:43;92986.69;;;22.55;53.63
74336;BME280;62755;-33.398;-70.572;2023-03-14T07:47:32;92983.13;;;22.38;54.06
74336;BME280;62755;-33.398;-70.572;2023-03-14T07:50:23;92994.09;;;22.49;53.59
74336;BME280;62755;-33.398;-70.572;2023-03-14T07:53:14;92991.50;;;22.29;54.44
74336;BME280;62755;-33.398;-70.572;2023-03-14T07:56:04;92998.00;;;22.37;54.35
74336;BME280;62755;-33.398;-70.572;2023-03-14T07:58:54;92993.72;;;22.67;53.69
74336;BME280;62755;-33.398;-70.572;2023-03-14T08:01:44;92999.63;;;22.60;54.03
74336;BME280;62755;-33.398;-70.572;2023-03-14T08:04:33;92974.31;;;22.60;53.49
74336;BME280;62755;-33.398;-70.572;2023-03-14T08:07:25;92987.25;;;22.70;53.75
74336;BME280;62755;-33.398;-70.572;2023-03-14T08:10:14;92987.16;;;22.48;54.27
74336;BME280;62755;-33.398;-70.572;2023-03-14T08:13:09;92990.44;;;22.21;54.85
74336;BME280;62755;-33.398;-70.572;2023-03-14T08:15:58;92992.56;;;22.01;55.18
74336;BME280;62755;-33.398;-70.572;2023-03-14T08:18:48;92993.66;;;21.83;55.43
74336;BME280;62755;-33.398;-70.572;2023-03-14T08:21:37;92993.94;;;21.85;55.38
74336;BME280;62755;-33.398;-70.572;2023-03-14T08:24:28;92986.78;;;21.93;55.14
74336;BME280;62755;-33.398;-70.572;2023-03-14T08:27:18;92989.69;;;21.84;55.42
74336;BME280;62755;-33.398;-70.572;2023-03-14T08:30:09;92997.41;;;21.86;55.56
74336;BME280;62755;-33.398;-70.572;2023-03-14T08:32:59;92991.81;;;21.74;55.82
74336;BME280;62755;-33.398;-70.572;2023-03-14T08:35:51;92986.59;;;21.71;56.04
74336;BME280;62755;-33.398;-70.572;2023-03-14T08:38:41;92991.84;;;21.80;55.54
74336;BME280;62755;-33.398;-70.572;2023-03-14T08:41:32;92991.19;;;21.85;55.40
74336;BME280;62755;-33.398;-70.572;2023-03-14T08:44:26;92988.59;;;21.76;55.61
74336;BME280;62755;-33.398;-70.572;2023-03-14T08:47:16;92986.81;;;21.67;55.80
74336;BME280;62755;-33.398;-70.572;2023-03-14T08:50:06;92989.13;;;21.80;55.31
74336;BME280;62755;-33.398;-70.572;2023-03-14T08:52:56;92993.66;;;21.83;55.26
74336;BME280;62755;-33.398;-70.572;2023-03-14T08:55:50;92988.97;;;21.58;55.95
74336;BME280;62755;-33.398;-70.572;2023-03-14T08:58:43;92994.84;;;21.51;56.21
74336;BME280;62755;-33.398;-70.572;2023-03-14T09:01:32;92994.56;;;21.49;56.02
74336;BME280;62755;-33.398;-70.572;2023-03-14T09:04:22;93007.47;;;21.48;56.05
74336;BME280;62755;-33.398;-70.572;2023-03-14T09:07:11;93013.03;;;21.34;56.65
74336;BME280;62755;-33.398;-70.572;2023-03-14T09:10:00;93002.34;;;21.30;56.84
74336;BME280;62755;-33.398;-70.572;2023-03-14T09:12:50;93004.03;;;21.28;57.00
74336;BME280;62755;-33.398;-70.572;2023-03-14T09:15:41;93009.22;;;21.26;57.21
74336;BME280;62755;-33.398;-70.572;2023-03-14T09:18:31;93002.66;;;21.38;56.90
74336;BME280;62755;-33.398;-70.572;2023-03-14T09:21:20;93019.63;;;21.47;56.48
74336;BME280;62755;-33.398;-70.572;2023-03-14T09:24:09;93019.13;;;21.49;56.43
74336;BME280;62755;-33.398;-70.572;2023-03-14T09:26:59;93011.41;;;21.22;57.10
74336;BME280;62755;-33.398;-70.572;2023-03-14T09:29:48;93020.56;;;20.98;57.78
74336;BME280;62755;-33.398;-70.572;2023-03-14T09:32:39;93010.22;;;21.03;57.65
74336;BME280;62755;-33.398;-70.572;2023-03-14T09:35:29;93009.25;;;21.06;57.65
74336;BME280;62755;-33.398;-70.572;2023-03-14T09:38:18;93007.78;;;21.05;57.51
74336;BME280;62755;-33.398;-70.572;2023-03-14T09:41:17;93009.78;;;21.10;57.65
74336;BME280;62755;-33.398;-70.572;2023-03-14T09:44:11;93006.59;;;21.11;57.48
74336;BME280;62755;-33.398;-70.572;2023-03-14T09:47:04;93008.31;;;21.09;57.37
74336;BME280;62755;-33.398;-70.572;2023-03-14T09:49:55;93006.50;;;21.26;57.05
74336;BME280;62755;-33.398;-70.572;2023-03-14T09:52:48;93013.03;;;21.34;56.87
74336;BME280;62755;-33.398;-70.572;2023-03-14T09:55:40;93013.72;;;21.29;56.89
74336;BME280;62755;-33.398;-70.572;2023-03-14T09:58:31;93012.81;;;21.37;56.67
74336;BME280;62755;-33.398;-70.572;2023-03-14T10:01:25;93001.38;;;21.33;56.40
74336;BME280;62755;-33.398;-70.572;2023-03-14T10:04:17;93001.47;;;21.19;56.97
74336;BME280;62755;-33.398;-70.572;2023-03-14T10:07:14;93003.03;;;21.05;57.45
74336;BME280;62755;-33.398;-70.572;2023-03-14T10:10:11;93010.44;;;21.25;57.05
74336;BME280;62755;-33.398;-70.572;2023-03-14T10:13:10;93009.94;;;21.21;57.04
74336;BME280;62755;-33.398;-70.572;2023-03-14T10:16:02;93012.13;;;21.17;57.31
74336;BME280;62755;-33.398;-70.572;2023-03-14T10:18:53;93015.38;;;21.21;57.51
74336;BME280;62755;-33.398;-70.572;2023-03-14T10:21:43;93019.88;;;21.24;57.21
74336;BME280;62755;-33.398;-70.572;2023-03-14T10:24:36;93025.00;;;21.16;57.35
74336;BME280;62755;-33.398;-70.572;2023-03-14T10:27:29;93021.50;;;21.36;56.91
74336;BME280;62755;-33.398;-70.572;2023-03-14T10:30:34;93025.06;;;21.02;57.77
74336;BME280;62755;-33.398;-70.572;2023-03-14T10:33:32;93006.84;;;20.53;58.79
74336;BME280;62755;-33.398;-70.572;2023-03-14T10:36:23;93032.44;;;20.75;58.78
74336;BME280;62755;-33.398;-70.572;2023-03-14T10:39:26;93027.78;;;20.81;58.57
74336;BME280;62755;-33.398;-70.572;2023-03-14T10:42:20;93016.25;;;20.92;58.33
74336;BME280;62755;-33.398;-70.572;2023-03-14T10:45:28;93019.31;;;20.99;58.18
74336;BME280;62755;-33.398;-70.572;2023-03-14T10:48:22;93016.06;;;20.95;58.20
74336;BME280;62755;-33.398;-70.572;2023-03-14T10:51:18;93020.41;;;20.87;58.60
74336;BME280;62755;-33.398;-70.572;2023-03-14T10:54:14;93021.69;;;21.07;57.98
74336;BME280;62755;-33.398;-70.572;2023-03-14T10:57:10;93024.50;;;21.18;57.63
74336;BME280;62755;-33.398;-70.572;2023-03-14T11:00:02;93025.59;;;21.26;57.31
74336;BME280;62755;-33.398;-70.572;2023-03-14T11:03:07;93019.88;;;21.24;57.46
74336;BME280;62755;-33.398;-70.572;2023-03-14T11:06:03;93027.47;;;21.14;57.34
74336;BME280;62755;-33.398;-70.572;2023-03-14T11:09:00;93019.97;;;21.35;56.79
74336;BME280;62755;-33.398;-70.572;2023-03-14T11:11:52;93026.56;;;21.23;56.91
74336;BME280;62755;-33.398;-70.572;2023-03-14T11:14:47;93018.38;;;21.23;56.42
74336;BME280;62755;-33.398;-70.572;2023-03-14T11:17:48;93029.09;;;21.26;55.91
74336;BME280;62755;-33.398;-70.572;2023-03-14T11:20:46;93032.59;;;21.07;56.39
74336;BME280;62755;-33.398;-70.572;2023-03-14T11:23:44;93038.59;;;21.11;56.45
74336;BME280;62755;-33.398;-70.572;2023-03-14T11:26:44;93045.31;;;21.15;56.37
74336;BME280;62755;-33.398;-70.572;2023-03-14T11:29:39;93042.09;;;20.96;57.16
74336;BME280;62755;-33.398;-70.572;2023-03-14T11:32:38;93041.97;;;21.06;57.00
74336;BME280;62755;-33.398;-70.572;2023-03-14T11:35:37;93035.59;;;21.09;57.13
74336;BME280;62755;-33.398;-70.572;2023-03-14T11:38:36;93033.88;;;21.37;56.47
74336;BME280;62755;-33.398;-70.572;2023-03-14T11:41:29;93032.41;;;21.36;56.49
74336;BME280;62755;-33.398;-70.572;2023-03-14T11:44:20;93037.41;;;21.43;56.20
74336;BME280;62755;-33.398;-70.572;2023-03-14T11:47:14;93021.50;;;21.36;56.52
74336;BME280;62755;-33.398;-70.572;2023-03-14T11:50:12;93040.41;;;21.45;56.40
74336;BME280;62755;-33.398;-70.572;2023-03-14T11:53:11;93034.19;;;21.70;56.04
74336;BME280;62755;-33.398;-70.572;2023-03-14T11:56:02;93026.81;;;21.76;55.69
74336;BME280;62755;-33.398;-70.572;2023-03-14T11:58:57;93009.81;;;21.61;56.17
74336;BME280;62755;-33.398;-70.572;2023-03-14T12:01:53;93032.72;;;21.69;56.52
74336;BME280;62755;-33.398;-70.572;2023-03-14T12:04:50;93004.03;;;21.79;55.50
74336;BME280;62755;-33.398;-70.572;2023-03-14T12:07:51;93012.78;;;21.83;55.98
74336;BME280;62755;-33.398;-70.572;2023-03-14T12:10:58;93025.25;;;21.64;56.88
74336;BME280;62755;-33.398;-70.572;2023-03-14T12:13:50;93026.63;;;21.54;57.02
74336;BME280;62755;-33.398;-70.572;2023-03-14T12:16:40;93027.47;;;21.40;57.35
74336;BME280;62755;-33.398;-70.572;2023-03-14T12:19:32;93022.25;;;21.62;57.03
74336;BME280;62755;-33.398;-70.572;2023-03-14T12:22:30;93021.75;;;21.89;57.76
74336;BME280;62755;-33.398;-70.572;2023-03-14T12:25:21;93024.63;;;22.11;56.87
74336;BME280;62755;-33.398;-70.572;2023-03-14T12:28:31;93019.34;;;22.33;55.40
74336;BME280;62755;-33.398;-70.572;2023-03-14T12:31:42;93019.47;;;22.55;54.32
74336;BME280;62755;-33.398;-70.572;2023-03-14T12:34:32;93030.63;;;22.15;55.50
74336;BME280;62755;-33.398;-70.572;2023-03-14T12:37:30;93030.38;;;22.13;55.40
74336;BME280;62755;-33.398;-70.572;2023-03-14T12:40:29;93041.97;;;22.03;55.97
74336;BME280;62755;-33.398;-70.572;2023-03-14T12:43:28;93043.72;;;21.80;56.87
74336;BME280;62755;-33.398;-70.572;2023-03-14T12:46:23;93049.19;;;21.80;57.06
74336;BME280;62755;-33.398;-70.572;2023-03-14T12:49:13;93045.84;;;21.65;57.25
74336;BME280;62755;-33.398;-70.572;2023-03-14T12:52:10;93040.72;;;21.78;57.14
74336;BME280;62755;-33.398;-70.572;2023-03-14T12:55:07;93038.56;;;21.82;56.83
74336;BME280;62755;-33.398;-70.572;2023-03-14T12:58:05;93037.19;;;21.72;56.95
74336;BME280;62755;-33.398;-70.572;2023-03-14T13:01:01;93034.97;;;21.96;56.58
74336;BME280;62755;-33.398;-70.572;2023-03-14T13:03:52;93039.00;;;22.06;56.35
74336;BME280;62755;-33.398;-70.572;2023-03-14T13:06:53;93043.75;;;22.11;56.18
74336;BME280;62755;-33.398;-70.572;2023-03-14T13:09:54;93048.00;;;22.12;56.23
74336;BME280;62755;-33.398;-70.572;2023-03-14T13:12:53;93060.22;;;22.53;55.51
74336;BME280;62755;-33.398;-70.572;2023-03-14T13:15:45;93059.22;;;22.56;54.76
74336;BME280;62755;-33.398;-70.572;2023-03-14T13:18:38;93062.31;;;22.64;54.78
74336;BME280;62755;-33.398;-70.572;2023-03-14T13:21:28;93063.53;;;22.63;54.15
74336;BME280;62755;-33.398;-70.572;2023-03-14T13:24:25;93066.75;;;22.61;53.45
74336;BME280;62755;-33.398;-70.572;2023-03-14T13:27:18;93069.28;;;22.70;53.66
74336;BME280;62755;-33.398;-70.572;2023-03-14T13:30:16;93070.28;;;22.67;53.90
74336;BME280;62755;-33.398;-70.572;2023-03-14T13:33:06;93066.50;;;22.59;53.66
74336;BME280;62755;-33.398;-70.572;2023-03-14T13:35:58;93075.28;;;22.75;53.74
74336;BME280;62755;-33.398;-70.572;2023-03-14T13:38:56;93079.75;;;22.72;53.96
74336;BME280;62755;-33.398;-70.572;2023-03-14T13:44:36;93076.44;;;23.05;52.68
74336;BME280;62755;-33.398;-70.572;2023-03-14T13:47:27;93075.13;;;22.95;53.02
74336;BME280;62755;-33.398;-70.572;2023-03-14T13:50:18;93080.47;;;23.15;52.77
74336;BME280;62755;-33.398;-70.572;2023-03-14T13:53:12;93091.06;;;23.02;52.84
74336;BME280;62755;-33.398;-70.572;2023-03-14T13:56:03;93090.41;;;23.18;52.16
74336;BME280;62755;-33.398;-70.572;2023-03-14T13:58:52;93096.66;;;23.29;52.02
74336;BME280;62755;-33.398;-70.572;2023-03-14T14:01:43;93095.38;;;23.14;52.29
74336;BME280;62755;-33.398;-70.572;2023-03-14T14:04:36;93094.44;;;23.28;51.97
74336;BME280;62755;-33.398;-70.572;2023-03-14T14:07:25;93097.81;;;23.01;51.79
74336;BME280;62755;-33.398;-70.572;2023-03-14T14:10:20;93100.38;;;23.21;51.88
74336;BME280;62755;-33.398;-70.572;2023-03-14T14:13:13;93102.94;;;23.35;51.27
74336;BME280;62755;-33.398;-70.572;2023-03-14T14:16:06;93097.06;;;23.59;50.88
74336;BME280;62755;-33.398;-70.572;2023-03-14T14:18:56;93101.81;;;23.64;50.54
74336;BME280;62755;-33.398;-70.572;2023-03-14T14:21:46;93106.53;;;23.64;50.54
74336;BME280;62755;-33.398;-70.572;2023-03-14T14:24:36;93105.06;;;23.79;50.25
74336;BME280;62755;-33.398;-70.572;2023-03-14T14:27:33;93107.03;;;23.62;51.02
74336;BME280;62755;-33.398;-70.572;2023-03-14T14:30:28;93103.56;;;23.67;51.14
74336;BME280;62755;-33.398;-70.572;2023-03-14T14:33:19;93114.03;;;23.74;50.78
74336;BME280;62755;-33.398;-70.572;2023-03-14T14:36:17;93111.25;;;23.69;50.83
74336;BME280;62755;-33.398;-70.572;2023-03-14T14:39:15;93113.03;;;23.66;50.88